Time;durP1;ratioP1;P1;durP2;ratioP2;P2;SDS_P1;SDS_P2;PMS_P1;PMS_P2;Temp;Humidity;BMP_temperature;BMP_pressure;BME280_temperature;BME280_humidity;BME280_pressure;Samples;Min_cycle;Max_cycle;Signal;HPM_P1;HPM_P2
2022/02/19 00:00:50;;;;;;;12.70;3.77;;;5.80;78.10;;;;;;5001088;28;20196;-93
2022/02/19 00:03:15;;;;;;;12.90;3.00;;;5.80;78.00;;;;;;5001485;28;20547;-92
2022/02/19 00:05:41;;;;;;;26.70;4.03;;;5.70;78.30;;;;;;4998987;28;20195;-91
2022/02/19 00:08:08;;;;;;;14.30;4.30;;;5.50;80.00;;;;;;4997506;28;20672;-91
2022/02/19 00:10:34;;;;;;;18.37;3.70;;;5.20;82.20;;;;;;4997487;28;20183;-91
2022/02/19 00:13:00;;;;;;;11.37;2.93;;;5.00;84.10;;;;;;4998084;28;20735;-92
2022/02/19 00:15:26;;;;;;;9.87;2.80;;;4.90;85.50;;;;;;4998355;28;20177;-92
2022/02/19 00:17:52;;;;;;;18.23;4.30;;;4.80;85.10;;;;;;4997965;28;20621;-91
2022/02/19 00:20:21;;;;;;;12.60;3.80;;;4.80;85.50;;;;;;4999112;28;20170;-92
2022/02/19 00:22:47;;;;;;;22.43;4.07;;;4.70;85.90;;;;;;5003254;28;20268;-92
2022/02/19 00:25:12;;;;;;;12.80;4.13;;;4.70;86.50;;;;;;5002979;28;20681;-91
2022/02/19 00:27:38;;;;;;;13.53;4.27;;;4.70;86.60;;;;;;5001398;28;20229;-93
2022/02/19 00:30:05;;;;;;;22.03;4.27;;;4.80;85.90;;;;;;5014241;28;20644;-91
2022/02/19 00:32:31;;;;;;;13.97;3.80;;;4.80;85.00;;;;;;4999444;28;20194;-92
2022/02/19 00:34:57;;;;;;;16.10;4.67;;;4.90;85.10;;;;;;5001725;28;20178;-92
2022/02/19 00:37:23;;;;;;;14.00;4.03;;;4.80;85.60;;;;;;4999978;28;20705;-91
2022/02/19 00:39:49;;;;;;;20.83;3.40;;;4.80;85.70;;;;;;5018467;28;20170;-93
2022/02/19 00:42:14;;;;;;;8.03;3.63;;;4.70;86.70;;;;;;5002830;28;20206;-92
2022/02/19 00:44:40;;;;;;;15.20;3.53;;;4.70;87.30;;;;;;5000581;28;20721;-92
2022/02/19 00:47:05;;;;;;;21.67;4.63;;;4.50;87.30;;;;;;5000114;28;20683;-93
2022/02/19 00:49:31;;;;;;;13.93;3.60;;;4.50;88.20;;;;;;5000146;28;20205;-92
2022/02/19 00:51:57;;;;;;;20.07;3.97;;;4.50;88.30;;;;;;5016099;28;20659;-91
2022/02/19 00:54:23;;;;;;;9.13;3.83;;;4.50;88.10;;;;;;4999572;28;20192;-92
2022/02/19 00:56:49;;;;;;;10.37;3.33;;;4.70;86.70;;;;;;5000925;28;20174;-93
2022/02/19 00:59:14;;;;;;;11.83;3.17;;;4.70;86.90;;;;;;5017424;28;20174;-92
2022/02/19 01:01:43;;;;;;;11.27;3.57;;;4.70;86.80;;;;;;5016794;28;20540;-94
2022/02/19 01:04:08;;;;;;;11.53;3.07;;;4.70;86.70;;;;;;5000040;28;20197;-93
2022/02/19 01:06:34;;;;;;;14.50;4.17;;;4.70;86.90;;;;;;5015631;28;20208;-91
2022/02/19 01:09:00;;;;;;;9.37;3.23;;;4.70;86.60;;;;;;4997306;28;20668;-92
2022/02/19 01:11:26;;;;;;;9.57;3.40;;;4.60;87.20;;;;;;4996825;28;20177;-91
2022/02/19 01:13:51;;;;;;;22.73;4.77;;;4.60;86.90;;;;;;4996821;28;20184;-91
2022/02/19 01:16:18;;;;;;;9.67;3.63;;;4.40;88.20;;;;;;5015167;28;20231;-92
2022/02/19 01:18:44;;;;;;;14.97;4.37;;;4.40;89.00;;;;;;4997660;28;20204;-91
2022/02/19 01:21:09;;;;;;;4.83;3.60;;;4.20;89.40;;;;;;5016688;28;20662;-92
2022/02/19 01:23:35;;;;;;;14.40;4.00;;;4.20;90.40;;;;;;4998338;28;20204;-91
2022/02/19 01:26:01;;;;;;;13.90;4.60;;;4.10;90.50;;;;;;4998091;28;20181;-92
2022/02/19 01:28:30;;;;;;;5.93;3.40;;;4.00;90.70;;;;;;4997541;28;20201;-91
2022/02/19 01:30:59;;;;;;;17.97;4.00;;;3.80;91.00;;;;;;5018730;28;20177;-92
2022/02/19 01:33:27;;;;;;;9.77;3.73;;;3.90;91.60;;;;;;5006327;28;20181;-93
2022/02/19 01:35:52;;;;;;;11.87;3.33;;;4.00;91.20;;;;;;5001485;28;20262;-92
2022/02/19 01:38:18;;;;;;;14.70;4.20;;;4.10;91.10;;;;;;4998376;28;20197;-92
2022/02/19 01:40:44;;;;;;;7.07;3.87;;;4.10;91.10;;;;;;4999425;28;20181;-93
2022/02/19 01:43:11;;;;;;;2.93;2.63;;;4.10;91.30;;;;;;5002911;28;20216;-93
2022/02/19 01:45:37;;;;;;;10.80;3.27;;;4.20;90.90;;;;;;5002380;28;20240;-92
2022/02/19 01:48:03;;;;;;;8.80;3.43;;;4.30;90.50;;;;;;5000251;28;20213;-92
2022/02/19 01:50:32;;;;;;;11.93;3.23;;;4.50;89.60;;;;;;4999083;28;20532;-93
2022/02/19 01:53:00;;;;;;;9.10;3.07;;;4.50;89.20;;;;;;5000716;28;20213;-93
2022/02/19 01:55:25;;;;;;;6.90;3.67;;;4.50;89.50;;;;;;5004208;28;20528;-92
2022/02/19 01:57:51;;;;;;;14.20;5.00;;;4.50;89.70;;;;;;5000909;28;20208;-93
2022/02/19 02:00:17;;;;;;;8.77;3.23;;;4.50;89.90;;;;;;5001442;28;20213;-93
2022/02/19 02:02:42;;;;;;;8.63;3.57;;;4.50;90.00;;;;;;5018083;28;20245;-93
2022/02/19 02:05:09;;;;;;;26.80;5.07;;;4.60;89.90;;;;;;5015502;28;20256;-92
2022/02/19 02:07:35;;;;;;;21.10;5.33;;;4.70;89.80;;;;;;5000114;28;20223;-94
2022/02/19 02:10:01;;;;;;;34.20;6.07;;;4.70;90.10;;;;;;5001772;28;20209;-93
2022/02/19 02:12:29;;;;;;;30.17;5.73;;;4.70;90.10;;;;;;5004445;28;20204;-94
2022/02/19 02:14:55;;;;;;;20.57;5.37;;;4.80;89.90;;;;;;5007500;28;20177;-93
2022/02/19 02:17:20;;;;;;;23.90;4.37;;;4.90;89.60;;;;;;5004671;28;20198;-93
2022/02/19 02:19:46;;;;;;;18.37;4.47;;;4.90;89.40;;;;;;5000996;28;20178;-92
2022/02/19 02:22:14;;;;;;;21.67;4.83;;;4.90;89.00;;;;;;5015924;28;20551;-92
2022/02/19 02:24:40;;;;;;;18.87;4.13;;;5.00;87.40;;;;;;4999768;28;20178;-93
2022/02/19 02:27:12;;;;;;;29.90;5.23;;;5.10;87.20;;;;;;5000687;28;20205;-93
2022/02/19 02:29:46;;;;;;;20.07;4.07;;;5.10;86.30;;;;;;4998171;28;20172;-93
2022/02/19 02:32:13;;;;;;;27.40;5.30;;;5.20;85.70;;;;;;4996480;28;20202;-92
2022/02/19 02:34:49;;;;;;;29.43;5.80;;;5.10;86.00;;;;;;4996159;28;20183;-92
2022/02/19 02:37:15;;;;;;;18.30;4.17;;;5.10;85.30;;;;;;5012870;28;20201;-92
2022/02/19 02:39:41;;;;;;;19.47;4.67;;;5.20;85.30;;;;;;5013986;28;20253;-91
2022/02/19 02:42:06;;;;;;;24.20;5.57;;;5.30;84.30;;;;;;4996495;28;20185;-93
2022/02/19 02:44:32;;;;;;;29.63;6.33;;;5.30;84.70;;;;;;4996622;28;20190;-92
2022/02/19 02:46:57;;;;;;;30.60;6.67;;;5.30;84.20;;;;;;4997451;28;20188;-92
2022/02/19 02:49:23;;;;;;;23.10;5.40;;;5.30;84.80;;;;;;4996926;28;20218;-92
2022/02/19 02:51:48;;;;;;;32.70;6.27;;;5.30;85.40;;;;;;4996386;28;20277;-92
2022/02/19 02:54:14;;;;;;;18.33;4.43;;;5.20;85.80;;;;;;5018679;28;20178;-92
2022/02/19 02:56:39;;;;;;;26.20;4.90;;;5.20;85.40;;;;;;5005146;28;20189;-93
2022/02/19 02:59:05;;;;;;;32.57;5.47;;;5.30;84.80;;;;;;5006928;28;20232;-93
2022/02/19 03:01:31;;;;;;;25.03;5.77;;;5.30;85.00;;;;;;5003186;28;20180;-93
2022/02/19 03:03:56;;;;;;;10.57;3.93;;;5.20;86.40;;;;;;5020087;28;20171;-90
2022/02/19 03:06:22;;;;;;;8.60;3.30;;;4.80;87.10;;;;;;5001340;28;20176;-92
2022/02/19 03:08:47;;;;;;;4.67;2.53;;;4.50;87.60;;;;;;5003024;28;20616;-93
2022/02/19 03:11:15;;;;;;;5.63;2.40;;;4.40;86.40;;;;;;5002376;28;20257;-92
2022/02/19 03:13:41;;;;;;;9.80;2.67;;;4.30;85.10;;;;;;5021851;28;20193;-93
2022/02/19 03:16:06;;;;;;;8.87;2.93;;;4.20;85.90;;;;;;5006471;28;20268;-93
2022/02/19 03:18:32;;;;;;;8.63;2.47;;;4.10;86.40;;;;;;5020773;28;20209;-92
2022/02/19 03:20:57;;;;;;;3.60;2.33;;;4.10;85.80;;;;;;5019826;28;20201;-92
2022/02/19 03:23:23;;;;;;;6.40;2.50;;;3.50;87.20;;;;;;5019697;28;20177;-93
2022/02/19 03:25:48;;;;;;;6.17;2.23;;;3.40;88.30;;;;;;5005186;28;20243;-91
2022/02/19 03:28:14;;;;;;;2.20;1.87;;;3.20;89.80;;;;;;5008589;28;20208;-93
2022/02/19 03:30:40;;;;;;;4.27;2.00;;;3.30;90.00;;;;;;5008499;28;20208;-93
2022/02/19 03:33:05;;;;;;;3.23;1.50;;;3.50;88.20;;;;;;5008524;28;20221;-93
2022/02/19 03:35:36;;;;;;;4.97;1.80;;;3.70;86.90;;;;;;5009760;28;20631;-93
2022/02/19 03:38:04;;;;;;;2.67;2.47;;;3.70;86.40;;;;;;5012166;28;20193;-93
2022/02/19 03:40:30;;;;;;;3.43;1.77;;;3.70;86.30;;;;;;5006418;28;20185;-92
2022/02/19 03:42:56;;;;;;;3.30;1.90;;;3.70;86.90;;;;;;5021934;28;20185;-92
2022/02/19 03:45:21;;;;;;;2.70;1.70;;;3.60;87.30;;;;;;5025623;28;20231;-92
2022/02/19 03:47:50;;;;;;;5.00;1.73;;;3.60;87.50;;;;;;5005894;28;20268;-93
2022/02/19 03:50:17;;;;;;;7.13;1.93;;;3.60;86.50;;;;;;5008386;28;20177;-93
2022/02/19 03:52:46;;;;;;;9.13;2.37;;;3.70;86.30;;;;;;5007530;28;20675;-94
2022/02/19 03:55:12;;;;;;;6.97;2.20;;;3.80;85.60;;;;;;5004939;28;20237;-93
2022/02/19 03:57:38;;;;;;;2.00;1.60;;;3.80;85.40;;;;;;5006608;28;20196;-93
2022/02/19 04:00:11;;;;;;;5.43;1.90;;;3.80;85.20;;;;;;5008119;28;20268;-93
2022/02/19 04:02:38;;;;;;;18.73;3.33;;;3.80;85.80;;;;;;5019864;28;20154;-92
2022/02/19 04:05:07;;;;;;;12.10;2.83;;;4.00;85.90;;;;;;5002699;28;20245;-92
2022/02/19 04:07:33;;;;;;;6.07;2.63;;;4.00;86.50;;;;;;5001814;28;20205;-93
2022/02/19 04:09:58;;;;;;;13.87;4.37;;;4.00;86.70;;;;;;5001147;28;20173;-93
2022/02/19 04:12:25;;;;;;;15.37;3.60;;;4.00;87.20;;;;;;5001491;28;20263;-92
2022/02/19 04:14:51;;;;;;;12.40;3.13;;;4.00;87.70;;;;;;5000648;28;20547;-93
2022/02/19 04:17:17;;;;;;;6.50;3.63;;;4.00;88.40;;;;;;5003360;28;20233;-94
2022/02/19 04:19:43;;;;;;;21.87;3.73;;;4.00;88.80;;;;;;5005329;28;20276;-92
2022/02/19 04:22:08;;;;;;;7.73;3.13;;;3.90;89.00;;;;;;5007547;28;20177;-93
2022/02/19 04:24:34;;;;;;;5.57;2.27;;;3.90;89.10;;;;;;5004618;28;20235;-93
2022/02/19 04:27:03;;;;;;;10.17;2.97;;;3.90;89.20;;;;;;5005600;28;20217;-93
2022/02/19 04:29:29;;;;;;;12.60;2.93;;;3.80;89.10;;;;;;5025942;28;20182;-93
2022/02/19 04:31:55;;;;;;;5.97;2.50;;;3.80;89.00;;;;;;5007019;28;20651;-94
2022/02/19 04:34:24;;;;;;;9.40;2.73;;;3.70;88.90;;;;;;5010409;28;20646;-94
2022/02/19 04:36:50;;;;;;;5.77;2.20;;;3.70;88.70;;;;;;5008522;28;20173;-93
2022/02/19 04:39:19;;;;;;;11.20;2.60;;;3.70;88.70;;;;;;5007892;28;20531;-94
2022/02/19 04:41:45;;;;;;;9.93;2.57;;;3.60;88.60;;;;;;5008414;28;20183;-93
2022/02/19 04:44:10;;;;;;;9.50;2.77;;;3.60;88.50;;;;;;5007203;28;20290;-93
2022/02/19 04:46:36;;;;;;;11.93;2.80;;;3.60;88.40;;;;;;5005825;28;20188;-93
2022/02/19 04:49:02;;;;;;;10.50;2.57;;;3.60;88.60;;;;;;5005672;28;20193;-93
2022/02/19 04:51:28;;;;;;;8.63;3.20;;;3.70;87.90;;;;;;5007749;28;20181;-93
2022/02/19 04:53:54;;;;;;;14.20;3.77;;;3.80;87.50;;;;;;5004906;28;20211;-93
2022/02/19 04:56:19;;;;;;;15.17;3.47;;;3.80;87.30;;;;;;5023804;28;20181;-93
2022/02/19 04:58:46;;;;;;;14.63;3.50;;;3.80;87.30;;;;;;5005171;28;20291;-93
2022/02/19 05:01:13;;;;;;;9.87;2.80;;;3.80;87.20;;;;;;5003641;28;20174;-93
2022/02/19 05:03:38;;;;;;;22.10;4.07;;;3.90;87.20;;;;;;5003913;28;20243;-93
2022/02/19 05:06:04;;;;;;;15.37;3.00;;;3.90;87.20;;;;;;5005286;28;20177;-93
2022/02/19 05:08:30;;;;;;;13.90;3.47;;;4.00;86.80;;;;;;5003020;28;20197;-93
2022/02/19 05:10:56;;;;;;;10.10;3.27;;;3.90;87.00;;;;;;5005500;28;20185;-93
2022/02/19 05:13:21;;;;;;;12.80;3.53;;;4.00;87.20;;;;;;5005158;28;20197;-92
2022/02/19 05:15:48;;;;;;;17.30;3.80;;;4.00;87.20;;;;;;5006106;28;20184;-93
2022/02/19 05:18:14;;;;;;;16.87;3.03;;;4.10;86.80;;;;;;5005777;28;20212;-93
2022/02/19 05:20:41;;;;;;;13.33;3.07;;;4.10;86.80;;;;;;5006536;28;20180;-93
2022/02/19 05:23:07;;;;;;;19.77;3.77;;;4.20;86.50;;;;;;5006372;28;20185;-93
2022/02/19 05:25:32;;;;;;;5.57;2.63;;;4.30;86.70;;;;;;5024703;28;20551;-93
2022/02/19 05:27:58;;;;;;;21.73;4.53;;;4.30;87.10;;;;;;5004152;28;20206;-93
2022/02/19 05:30:23;;;;;;;12.93;3.33;;;4.40;86.50;;;;;;5005441;28;20182;-93
2022/02/19 05:32:49;;;;;;;18.07;4.73;;;4.40;86.90;;;;;;5002204;28;20679;-92
2022/02/19 05:35:15;;;;;;;21.13;4.53;;;4.40;86.90;;;;;;5002805;28;20181;-93
2022/02/19 05:37:40;;;;;;;16.07;3.50;;;4.50;87.40;;;;;;5001442;28;20200;-92
2022/02/19 05:40:09;;;;;;;9.90;3.33;;;4.50;87.50;;;;;;5018245;28;20656;-93
2022/02/19 05:42:35;;;;;;;8.97;2.63;;;4.40;87.00;;;;;;4999988;28;20600;-92
2022/02/19 05:45:00;;;;;;;11.57;2.70;;;4.40;86.30;;;;;;5016510;28;20235;-93
2022/02/19 05:47:26;;;;;;;15.97;3.40;;;4.30;86.60;;;;;;5001308;28;20197;-93
2022/02/19 05:49:52;;;;;;;11.40;3.37;;;4.30;86.80;;;;;;5001069;28;20178;-93
2022/02/19 05:52:18;;;;;;;4.43;2.20;;;4.20;87.00;;;;;;5001395;28;20193;-93
2022/02/19 05:54:44;;;;;;;7.40;2.80;;;4.20;87.20;;;;;;5001334;28;20201;-93
2022/02/19 05:57:10;;;;;;;12.83;2.60;;;4.10;87.40;;;;;;5003190;28;20193;-93
2022/02/19 05:59:36;;;;;;;10.20;2.90;;;4.10;87.70;;;;;;5000247;28;20178;-92
2022/02/19 06:02:02;;;;;;;6.53;2.90;;;4.00;88.40;;;;;;5001401;28;20205;-93
2022/02/19 06:04:28;;;;;;;12.57;3.13;;;3.90;88.70;;;;;;5018639;28;20180;-93
2022/02/19 06:06:54;;;;;;;9.13;2.90;;;3.80;88.60;;;;;;5000971;28;20188;-93
2022/02/19 06:09:19;;;;;;;14.53;3.50;;;3.80;89.00;;;;;;5004571;28;20187;-94
2022/02/19 06:11:46;;;;;;;16.63;3.57;;;3.70;89.50;;;;;;5017963;28;20184;-93
2022/02/19 06:14:11;;;;;;;11.70;3.67;;;3.70;89.80;;;;;;5000639;28;20181;-93
2022/02/19 06:16:37;;;;;;;15.03;2.60;;;3.50;90.00;;;;;;5003648;28;20203;-94
2022/02/19 06:19:03;;;;;;;8.67;3.17;;;3.30;90.20;;;;;;5000265;28;20211;-93
2022/02/19 06:21:29;;;;;;;7.63;2.67;;;3.10;90.40;;;;;;5007394;28;20271;-94
2022/02/19 06:23:55;;;;;;;12.63;3.10;;;3.00;90.60;;;;;;5011891;28;20187;-93
2022/02/19 06:26:23;;;;;;;7.30;2.90;;;2.90;90.80;;;;;;5016248;28;20181;-94
2022/02/19 06:28:49;;;;;;;9.10;2.80;;;3.00;91.20;;;;;;5017008;28;20204;-94
2022/02/19 06:31:17;;;;;;;7.30;2.90;;;3.10;91.00;;;;;;5020858;28;20181;-94
2022/02/19 06:33:45;;;;;;;6.20;2.47;;;3.10;91.00;;;;;;5022334;28;20677;-93
2022/02/19 06:36:11;;;;;;;5.40;2.37;;;3.20;90.90;;;;;;5022855;28;20170;-94
2022/02/19 06:38:39;;;;;;;4.13;2.03;;;3.20;90.90;;;;;;5021902;28;20203;-94
2022/02/19 06:41:09;;;;;;;5.10;2.40;;;3.10;91.10;;;;;;5022274;28;20228;-94
2022/02/19 06:43:36;;;;;;;4.13;2.20;;;3.10;91.50;;;;;;5022577;28;20180;-94
2022/02/19 06:46:07;;;;;;;2.40;2.03;;;3.00;91.40;;;;;;5017967;28;20166;-93
2022/02/19 06:48:33;;;;;;;5.37;2.40;;;3.10;91.00;;;;;;5015290;28;20251;-93
2022/02/19 06:50:59;;;;;;;10.63;3.10;;;3.00;90.00;;;;;;5009740;28;20182;-93
2022/02/19 06:53:26;;;;;;;9.57;3.23;;;3.00;90.30;;;;;;5013857;28;20204;-94
2022/02/19 06:55:52;;;;;;;18.30;3.23;;;3.00;90.60;;;;;;5015107;28;20237;-93
2022/02/19 06:58:18;;;;;;;7.83;2.47;;;3.00;90.60;;;;;;5018074;28;20206;-94
2022/02/19 07:00:43;;;;;;;14.50;2.87;;;3.00;90.70;;;;;;5019955;28;20173;-94
2022/02/19 07:03:09;;;;;;;14.00;3.53;;;3.00;90.90;;;;;;5017580;28;20196;-93
2022/02/19 07:05:34;;;;;;;12.10;3.43;;;2.90;91.00;;;;;;5013649;28;20191;-93
2022/02/19 07:08:00;;;;;;;17.23;4.03;;;2.90;91.10;;;;;;5008726;28;20204;-94
2022/02/19 07:10:27;;;;;;;11.10;4.17;;;2.80;91.20;;;;;;5013215;28;20622;-94
2022/02/19 07:12:56;;;;;;;11.93;3.43;;;2.90;91.20;;;;;;5015472;28;20227;-94
2022/02/19 07:15:24;;;;;;;3.63;2.40;;;2.90;91.10;;;;;;5020569;28;20176;-93
2022/02/19 07:17:52;;;;;;;14.07;3.47;;;2.90;91.20;;;;;;5020202;28;20197;-94
2022/02/19 07:20:20;;;;;;;16.50;3.67;;;2.90;91.20;;;;;;5037969;28;20598;-94
2022/02/19 07:22:50;;;;;;;17.90;4.43;;;2.90;91.30;;;;;;5022240;28;20176;-94
2022/02/19 07:25:17;;;;;;;19.77;3.90;;;3.00;91.40;;;;;;5020881;28;20192;-94
2022/02/19 07:27:45;;;;;;;15.10;3.07;;;3.20;91.50;;;;;;5018760;28;20291;-93
2022/02/19 07:30:16;;;;;;;13.00;3.23;;;3.30;91.30;;;;;;5017973;28;20205;-94
2022/02/19 07:32:44;;;;;;;10.43;2.50;;;3.40;91.10;;;;;;5020382;28;20207;-93
2022/02/19 07:35:10;;;;;;;11.30;3.63;;;3.60;90.90;;;;;;5014257;28;20195;-94
2022/02/19 07:37:37;;;;;;;8.27;3.23;;;3.70;90.60;;;;;;5009984;28;20228;-93
2022/02/19 07:40:07;;;;;;;10.50;2.33;;;3.80;90.30;;;;;;5008732;28;20182;-93
2022/02/19 07:42:36;;;;;;;6.73;2.17;;;3.80;89.70;;;;;;5010514;28;20177;-93
2022/02/19 07:45:04;;;;;;;8.60;2.73;;;4.00;89.00;;;;;;5008402;28;20196;-93
2022/02/19 07:47:35;;;;;;;9.87;2.80;;;4.10;88.20;;;;;;5010318;28;20205;-93
2022/02/19 07:58:18;;;;;;;11.00;2.00;;;4.20;88.20;;;;;;5030698;28;20204;-93
2022/02/19 08:01:05;;;;;;;6.80;1.93;;;4.20;88.20;;;;;;5013173;28;20673;-93
2022/02/19 08:03:34;;;;;;;16.60;3.23;;;4.30;87.50;;;;;;5015687;28;20174;-92
2022/02/19 08:06:01;;;;;;;2.57;1.70;;;4.30;86.80;;;;;;5010765;28;20188;-93
2022/02/19 08:08:27;;;;;;;11.33;2.33;;;4.40;86.90;;;;;;5020202;28;20289;-92
2022/02/19 08:10:53;;;;;;;6.60;2.20;;;4.40;86.80;;;;;;5021363;28;20221;-92
2022/02/19 08:13:21;;;;;;;5.50;1.87;;;4.40;87.30;;;;;;5022875;28;20277;-94
2022/02/19 08:15:47;;;;;;;4.97;2.50;;;4.40;87.60;;;;;;5021984;28;20189;-93
2022/02/19 08:18:16;;;;;;;8.73;2.40;;;4.40;87.50;;;;;;5020136;28;20202;-93
2022/02/19 08:20:44;;;;;;;5.60;1.60;;;4.40;87.50;;;;;;5013402;28;20184;-92
2022/02/19 08:23:11;;;;;;;5.83;2.33;;;4.40;87.40;;;;;;5021924;28;20169;-93
2022/02/19 08:25:38;;;;;;;1.97;1.87;;;4.50;87.70;;;;;;5021036;28;20187;-93
2022/02/19 08:28:07;;;;;;;3.47;1.83;;;4.50;87.60;;;;;;5006345;28;20205;-92
2022/02/19 08:30:34;;;;;;;4.30;1.70;;;4.60;87.50;;;;;;5006956;28;20178;-93
2022/02/19 08:33:02;;;;;;;6.33;2.20;;;4.70;87.70;;;;;;5007132;28;20220;-92
2022/02/19 08:35:28;;;;;;;5.33;2.00;;;4.80;87.90;;;;;;5014796;28;20197;-93
2022/02/19 08:37:54;;;;;;;3.13;1.73;;;4.80;87.80;;;;;;5014808;28;20200;-93
2022/02/19 08:40:21;;;;;;;2.57;1.80;;;4.80;87.50;;;;;;5018742;28;20186;-93
2022/02/19 08:42:47;;;;;;;3.43;1.90;;;4.80;87.60;;;;;;5011431;28;20188;-93
2022/02/19 08:45:17;;;;;;;5.47;2.23;;;4.70;87.60;;;;;;5014934;28;20257;-93
2022/02/19 08:47:43;;;;;;;5.57;2.00;;;4.70;87.80;;;;;;5015715;28;20719;-92
2022/02/19 08:50:12;;;;;;;2.70;1.93;;;4.70;87.80;;;;;;5007725;28;20201;-93
2022/02/19 08:52:39;;;;;;;2.30;1.87;;;4.60;87.90;;;;;;5015882;28;20209;-93
2022/02/19 08:55:06;;;;;;;5.20;2.70;;;4.50;87.80;;;;;;5011576;28;20173;-93
2022/02/19 08:57:31;;;;;;;6.87;2.53;;;4.50;88.20;;;;;;5014413;28;20213;-93
2022/02/19 08:59:57;;;;;;;4.00;2.03;;;4.40;88.50;;;;;;5015408;28;20177;-93
2022/02/19 09:02:22;;;;;;;3.47;2.03;;;4.30;89.20;;;;;;5028159;28;20181;-93
2022/02/19 09:04:51;;;;;;;2.30;2.10;;;4.00;89.20;;;;;;5016048;28;20241;-93
2022/02/19 09:07:17;;;;;;;4.87;2.07;;;4.00;89.50;;;;;;5019222;28;20185;-93
2022/02/19 09:09:44;;;;;;;5.47;2.10;;;4.00;89.40;;;;;;5005146;28;20350;-91
2022/02/19 09:12:10;;;;;;;3.80;2.27;;;3.80;89.70;;;;;;5001802;28;20206;-91
2022/02/19 09:14:36;;;;;;;5.40;2.40;;;3.80;90.40;;;;;;5003204;28;20177;-92
2022/02/19 09:17:02;;;;;;;1.90;1.77;;;3.70;90.60;;;;;;5002911;28;20181;-92
2022/02/19 09:19:30;;;;;;;3.23;2.17;;;3.70;90.70;;;;;;5002464;28;20173;-92
2022/02/19 09:22:28;;;;;;;2.87;2.10;;;3.30;90.60;;;;;;5011010;28;20183;-93
2022/02/19 09:24:57;;;;;;;6.80;2.57;;;3.20;90.90;;;;;;5007048;28;20192;-92
2022/02/19 09:27:28;;;;;;;3.00;2.40;;;3.20;91.20;;;;;;5008537;28;20192;-92
2022/02/19 09:29:54;;;;;;;6.23;2.33;;;3.20;91.40;;;;;;5017627;28;20243;-93
2022/02/19 09:32:20;;;;;;;2.13;2.03;;;3.30;91.60;;;;;;5009814;28;20682;-92
2022/02/19 09:34:52;;;;;;;4.37;2.20;;;3.20;91.60;;;;;;5010511;28;20187;-92
2022/02/19 09:37:18;;;;;;;3.57;2.33;;;3.20;91.70;;;;;;5254094;23;20236;-93
2022/02/19 09:39:44;;;;;;;3.90;2.37;;;3.20;91.90;;;;;;5033569;28;20224;-94
2022/02/19 09:42:18;;;;;;;4.60;2.40;;;3.20;92.10;;;;;;5032758;28;20191;-93
2022/02/19 09:44:56;;;;;;;10.13;2.50;;;3.20;92.30;;;;;;5030943;28;20182;-93
2022/02/19 09:47:30;;;;;;;8.13;2.57;;;3.10;92.20;;;;;;5038380;28;20195;-93
2022/02/19 09:50:02;;;;;;;7.70;2.87;;;3.10;92.30;;;;;;5037262;28;20165;-93
2022/02/19 09:52:28;;;;;;;5.70;2.17;;;3.00;92.10;;;;;;5034284;28;20261;-93
2022/02/19 09:54:59;;;;;;;7.57;3.43;;;2.80;92.00;;;;;;5040799;28;20189;-94
2022/02/19 09:57:27;;;;;;;7.90;3.03;;;2.80;92.30;;;;;;5038929;28;20184;-93
2022/02/19 09:59:53;;;;;;;6.93;2.60;;;2.90;92.30;;;;;;5039959;28;20171;-93
2022/02/19 10:02:30;;;;;;;9.70;2.37;;;3.00;91.90;;;;;;5040929;28;20214;-92
2022/02/19 10:05:26;;;;;;;13.13;3.57;;;3.10;91.70;;;;;;5045559;28;20217;-93
2022/02/19 10:08:08;;;;;;;8.40;2.57;;;3.30;91.50;;;;;;5044769;28;20200;-93
2022/02/19 10:10:41;;;;;;;5.50;2.20;;;3.50;91.50;;;;;;5044493;28;20171;-93
2022/02/19 10:18:36;;;;;;;6.27;3.10;;;3.80;92.00;;;;;;5073935;28;20235;-91
2022/02/19 10:21:15;;;;;;;6.50;3.40;;;3.90;91.70;;;;;;5048643;28;20172;-92
2022/02/19 10:23:52;;;;;;;9.33;3.80;;;4.10;91.60;;;;;;5052718;28;20183;-93
2022/02/19 10:26:20;;;;;;;7.30;3.27;;;4.30;91.40;;;;;;5063930;28;20214;-93
2022/02/19 10:29:00;;;;;;;11.83;3.90;;;4.20;90.80;;;;;;5063180;28;20210;-93
2022/02/19 10:31:32;;;;;;;18.27;5.23;;;4.20;91.00;;;;;;5063982;28;20175;-92
2022/02/19 10:34:09;;;;;;;9.57;3.37;;;4.30;90.80;;;;;;5062625;28;20198;-92
2022/02/19 10:36:42;;;;;;;11.43;4.27;;;4.40;90.60;;;;;;5060360;28;20242;-93
2022/02/19 10:39:10;;;;;;;10.37;3.60;;;4.50;90.20;;;;;;5058738;28;20176;-93
2022/02/19 10:41:38;;;;;;;8.43;2.67;;;4.70;89.90;;;;;;5052950;28;20559;-93
2022/02/19 10:44:26;;;;;;;8.07;3.23;;;4.80;89.70;;;;;;5054878;28;20624;-93
2022/02/19 10:46:54;;;;;;;14.17;3.57;;;4.80;89.60;;;;;;5057313;28;20203;-94
2022/02/19 10:49:20;;;;;;;17.07;3.67;;;4.80;89.40;;;;;;5051397;28;20187;-92
2022/02/19 10:51:45;;;;;;;14.37;3.70;;;4.90;89.30;;;;;;5044614;28;20560;-93
2022/02/19 10:54:12;;;;;;;10.80;3.27;;;4.90;88.60;;;;;;5044077;28;20661;-93
2022/02/19 10:56:39;;;;;;;12.00;3.20;;;5.00;88.70;;;;;;5045796;28;20175;-92
2022/02/19 10:59:18;;;;;;;5.87;2.50;;;5.10;88.30;;;;;;5060288;28;20192;-93
2022/02/19 11:01:51;;;;;;;8.40;3.30;;;5.00;87.30;;;;;;5063020;28;20154;-93
2022/02/19 11:04:19;;;;;;;8.47;2.80;;;5.10;87.10;;;;;;5062681;28;20176;-92
2022/02/19 11:06:54;;;;;;;9.30;2.90;;;5.20;86.80;;;;;;5063096;28;20173;-92
2022/02/19 11:09:23;;;;;;;6.30;2.00;;;5.20;86.80;;;;;;5064187;28;20182;-91
2022/02/19 11:11:50;;;;;;;4.23;2.90;;;5.30;86.40;;;;;;5057356;28;20178;-93
2022/02/19 11:14:16;;;;;;;7.23;2.70;;;5.30;86.80;;;;;;5050942;28;20176;-92
2022/02/19 11:16:43;;;;;;;6.00;2.83;;;5.30;86.50;;;;;;5043137;28;20191;-92
2022/02/19 11:19:08;;;;;;;10.77;3.20;;;5.30;86.80;;;;;;5045791;28;20193;-92
2022/02/19 11:21:37;;;;;;;7.33;2.77;;;5.30;85.20;;;;;;5060790;28;20198;-92
2022/02/19 11:24:05;;;;;;;6.07;2.57;;;5.50;85.60;;;;;;5044833;28;20183;-92
2022/02/19 11:26:31;;;;;;;8.07;2.90;;;5.40;85.70;;;;;;5042859;28;20181;-93
2022/02/19 11:29:03;;;;;;;6.33;2.70;;;5.60;86.50;;;;;;5046902;28;20219;-92
2022/02/19 11:31:32;;;;;;;12.07;2.30;;;5.60;85.70;;;;;;5048142;28;20171;-92
2022/02/19 11:34:05;;;;;;;6.53;2.10;;;5.70;86.00;;;;;;5054583;28;20202;-92
2022/02/19 11:36:32;;;;;;;4.20;2.27;;;5.40;84.70;;;;;;5060922;28;20174;-93
2022/02/19 11:39:00;;;;;;;9.27;3.00;;;5.30;85.70;;;;;;5060864;28;20252;-93
2022/02/19 11:41:43;;;;;;;7.80;2.70;;;5.20;86.40;;;;;;5061300;28;20183;-93
2022/02/19 11:44:15;;;;;;;5.40;2.40;;;5.30;86.70;;;;;;5049198;28;20185;-91
2022/02/19 11:46:41;;;;;;;6.30;2.50;;;5.30;87.30;;;;;;5047809;28;20714;-92
2022/02/19 11:49:26;;;;;;;5.87;3.47;;;5.10;86.40;;;;;;5039422;28;20193;-92
2022/02/19 11:52:03;;;;;;;7.43;2.40;;;4.90;87.00;;;;;;5045713;28;20172;-93
2022/02/19 11:54:53;;;;;;;6.33;2.90;;;4.70;86.90;;;;;;5045763;28;20168;-92
2022/02/19 11:57:25;;;;;;;4.57;2.10;;;4.50;87.30;;;;;;5021352;28;20193;-93
2022/02/19 11:59:52;;;;;;;6.97;2.13;;;4.80;88.10;;;;;;5062208;28;20164;-93
2022/02/19 12:02:27;;;;;;;7.50;2.90;;;4.90;88.50;;;;;;5061213;28;20187;-93
2022/02/19 12:05:19;;;;;;;8.80;3.13;;;4.90;87.90;;;;;;5057590;28;20179;-92
2022/02/19 12:08:01;;;;;;;9.33;2.93;;;5.00;88.40;;;;;;5057188;28;20272;-92
2022/02/19 12:10:27;;;;;;;9.77;2.77;;;4.80;88.70;;;;;;5061116;28;20172;-92
2022/02/19 12:13:10;;;;;;;10.63;3.50;;;4.90;88.30;;;;;;5061821;28;20190;-93
2022/02/19 12:15:44;;;;;;;13.53;4.03;;;5.00;88.60;;;;;;5062443;28;20182;-92
2022/02/19 12:18:11;;;;;;;9.17;3.30;;;4.90;88.10;;;;;;5061589;28;20689;-93
2022/02/19 12:20:39;;;;;;;11.67;3.63;;;5.00;88.40;;;;;;5057071;28;20183;-92
2022/02/19 12:23:13;;;;;;;12.27;3.83;;;5.10;88.40;;;;;;5052446;28;20184;-93
2022/02/19 12:25:54;;;;;;;13.90;4.27;;;5.30;87.70;;;;;;5047002;28;20175;-93
2022/02/19 12:28:21;;;;;;;9.80;2.83;;;5.80;87.10;;;;;;5046865;28;20193;-92
2022/02/19 12:31:07;;;;;;;11.43;3.40;;;6.00;86.00;;;;;;5044786;28;20179;-92
2022/02/19 12:33:33;;;;;;;10.23;2.70;;;6.10;84.80;;;;;;5046833;28;20224;-93
2022/02/19 12:36:09;;;;;;;7.60;3.07;;;6.40;85.30;;;;;;5052271;28;20175;-93
2022/02/19 12:38:36;;;;;;;9.90;3.27;;;6.20;82.80;;;;;;5052442;28;20201;-93
2022/02/19 12:41:05;;;;;;;9.90;2.53;;;6.40;83.20;;;;;;5070777;28;20238;-92
2022/02/19 12:43:30;;;;;;;9.47;2.87;;;6.70;82.70;;;;;;5060231;28;20198;-93
2022/02/19 12:45:57;;;;;;;16.13;3.87;;;6.70;82.90;;;;;;5058396;28;20182;-92
2022/02/19 12:48:23;;;;;;;10.73;3.07;;;6.80;82.60;;;;;;5059092;28;20218;-93
2022/02/19 12:50:58;;;;;;;9.43;3.43;;;6.80;81.50;;;;;;5057245;28;20176;-93
2022/02/19 12:53:24;;;;;;;14.57;3.30;;;6.50;80.90;;;;;;5049167;28;20199;-93
2022/02/19 12:55:54;;;;;;;21.47;4.83;;;6.30;82.60;;;;;;5047250;28;20180;-93
2022/02/19 12:58:21;;;;;;;15.87;4.33;;;6.10;84.10;;;;;;5041572;28;20222;-93
2022/02/19 13:00:56;;;;;;;11.47;3.50;;;5.80;84.60;;;;;;5038857;28;20191;-92
2022/02/19 13:03:22;;;;;;;15.87;2.97;;;5.20;85.50;;;;;;5038284;28;20628;-92
2022/02/19 13:05:54;;;;;;;8.00;2.87;;;4.80;86.00;;;;;;5038768;28;20185;-93
2022/02/19 13:08:20;;;;;;;12.13;3.33;;;4.60;86.30;;;;;;5039025;28;20200;-92
2022/02/19 13:10:49;;;;;;;13.53;3.33;;;4.60;86.40;;;;;;5037307;28;20184;-92